createdAt,value
2022-12-07T00:01:22.981Z,81.11
2022-12-07T00:03:51.886Z,81.12
2022-12-07T00:06:19.715Z,81.28
2022-12-07T00:08:47.547Z,81.27
2022-12-07T00:11:20.507Z,81.60
2022-12-07T00:13:51.328Z,81.60
2022-12-07T00:16:20.312Z,81.98
2022-12-07T00:18:47.028Z,82.20
2022-12-07T00:21:41.037Z,82.10
2022-12-07T00:24:08.153Z,82.14
2022-12-07T00:26:37.682Z,82.17
2022-12-07T00:29:18.644Z,82.07
2022-12-07T00:31:46.112Z,82.08
2022-12-07T00:34:15.896Z,82.12
2022-12-07T00:36:42.944Z,82.22
2022-12-07T00:39:10.117Z,82.22
2022-12-07T00:41:36.869Z,82.01
2022-12-07T00:44:03.777Z,81.87
2022-12-07T00:46:30.886Z,81.99
2022-12-07T00:48:57.670Z,81.58
2022-12-07T00:51:26.037Z,81.55
2022-12-07T00:53:53.016Z,81.73
2022-12-07T00:56:22.898Z,81.81
2022-12-07T00:58:57.469Z,81.66
2022-12-07T01:01:26.814Z,81.56
2022-12-07T01:03:53.766Z,81.55
2022-12-07T01:06:22.356Z,81.50
2022-12-07T01:08:49.902Z,81.56
2022-12-07T01:11:19.918Z,81.80
2022-12-07T01:13:49.869Z,81.64
2022-12-07T01:16:17.521Z,81.36
2022-12-07T01:18:47.913Z,81.25
2022-12-07T01:21:27.027Z,81.25
2022-12-07T01:23:54.446Z,81.21
2022-12-07T01:26:24.422Z,81.11
2022-12-07T01:28:51.883Z,81.09
2022-12-07T01:31:21.583Z,81.30
2022-12-07T01:33:53.757Z,81.60
2022-12-07T01:36:22.026Z,81.45
2022-12-07T01:38:52.248Z,81.10
2022-12-07T01:41:20.221Z,81.05
2022-12-07T01:44:14.681Z,80.97
2022-12-07T01:46:43.907Z,80.88
2022-12-07T01:49:15.146Z,80.90
2022-12-07T01:51:43.978Z,80.71
2022-12-07T01:54:13.547Z,80.72
2022-12-07T01:56:44.660Z,80.61
2022-12-07T01:59:11.482Z,80.63
2022-12-07T02:01:38.239Z,80.42
2022-12-07T02:04:06.331Z,80.29
2022-12-07T02:06:35.893Z,80.03
2022-12-07T02:09:02.993Z,80.01
2022-12-07T02:11:29.620Z,80.19
2022-12-07T02:13:56.382Z,80.12
2022-12-07T02:16:40.331Z,80.25
2022-12-07T02:19:37.788Z,80.59
2022-12-07T02:22:46.325Z,80.51
2022-12-07T02:25:31.395Z,80.64
2022-12-07T02:28:26.703Z,80.68
2022-12-07T02:30:59.353Z,80.87
2022-12-07T02:33:36.007Z,80.54
2022-12-07T02:36:12.741Z,80.44
2022-12-07T02:38:48.686Z,80.38
2022-12-07T02:41:36.317Z,80.40
2022-12-07T02:44:08.414Z,80.49
2022-12-07T02:46:42.702Z,80.57
2022-12-07T02:49:11.126Z,80.41
2022-12-07T02:51:44.447Z,80.44
2022-12-07T02:54:14.250Z,80.41
2022-12-07T02:56:43.636Z,80.18
2022-12-07T02:59:23.145Z,79.92
2022-12-07T03:02:11.903Z,79.88
2022-12-07T03:05:16.551Z,79.94
2022-12-07T03:08:00.527Z,80.20
2022-12-07T03:10:52.140Z,80.03
2022-12-07T03:13:25.935Z,80.47
2022-12-07T03:16:15.603Z,80.54
2022-12-07T03:18:57.251Z,80.71
2022-12-07T03:21:27.503Z,80.67
2022-12-07T03:24:00.701Z,80.61
2022-12-07T03:26:38.916Z,80.59
2022-12-07T03:29:13.039Z,80.69
2022-12-07T03:31:51.796Z,80.61
2022-12-07T03:34:31.412Z,80.66
2022-12-07T03:37:07.952Z,80.54
2022-12-07T03:39:41.705Z,80.63
2022-12-07T03:42:10.030Z,80.60
2022-12-07T03:44:37.286Z,80.79
2022-12-07T03:47:11.324Z,80.44
2022-12-07T03:49:40.754Z,80.64
2022-12-07T03:52:31.201Z,80.80
2022-12-07T03:55:19.536Z,81.16
2022-12-07T03:57:51.340Z,81.05
2022-12-07T04:00:19.103Z,81.35
2022-12-07T04:02:46.102Z,81.28
2022-12-07T04:05:12.965Z,81.34
2022-12-07T04:07:40.951Z,81.22
2022-12-07T04:10:08.285Z,80.96
2022-12-07T04:12:34.900Z,81.13
2022-12-07T04:15:01.638Z,81.10
2022-12-07T04:17:28.255Z,80.91
2022-12-07T04:19:55.129Z,81.17
2022-12-07T04:22:21.855Z,81.18
2022-12-07T04:24:48.697Z,81.10
2022-12-07T04:27:15.747Z,80.80
2022-12-07T04:29:42.506Z,80.94
2022-12-07T04:32:09.540Z,81.21
2022-12-07T04:34:36.275Z,81.37
2022-12-07T04:37:03.010Z,81.03
2022-12-07T04:39:32.107Z,81.21
2022-12-07T04:42:00.446Z,81.26
2022-12-07T04:44:28.214Z,81.32
2022-12-07T04:46:55.924Z,81.16
2022-12-07T04:49:23.406Z,81.12
2022-12-07T04:51:50.295Z,81.14
2022-12-07T04:54:17.148Z,81.11
2022-12-07T04:56:44.237Z,81.20
2022-12-07T04:59:12.411Z,81.29
2022-12-07T05:01:39.421Z,81.45
2022-12-07T05:04:06.874Z,81.45
2022-12-07T05:06:33.752Z,81.54
2022-12-07T05:09:00.597Z,81.52
2022-12-07T05:11:39.321Z,81.35
2022-12-07T05:14:18.884Z,81.81
2022-12-07T05:16:48.270Z,81.72
2022-12-07T05:19:15.359Z,81.84
2022-12-07T05:21:42.104Z,81.91
2022-12-07T05:24:12.026Z,81.93
2022-12-07T05:26:39.230Z,82.03
2022-12-07T05:29:06.033Z,81.95
2022-12-07T05:31:34.495Z,81.87
2022-12-07T05:34:01.225Z,82.03
2022-12-07T05:36:29.101Z,81.86
2022-12-07T05:38:55.834Z,81.87
2022-12-07T05:41:40.690Z,81.96
2022-12-07T05:44:07.530Z,82.01
2022-12-07T05:46:34.520Z,82.16
2022-12-07T05:49:01.931Z,82.12
2022-12-07T05:51:28.708Z,82.05
2022-12-07T05:53:55.638Z,82.11
2022-12-07T05:56:23.277Z,82.12
2022-12-07T05:59:08.449Z,82.32
2022-12-07T06:01:35.046Z,82.37
2022-12-07T06:04:01.722Z,82.22
2022-12-07T06:06:28.520Z,82.43
2022-12-07T06:08:55.305Z,82.18
2022-12-07T06:11:40.620Z,82.30
2022-12-07T06:14:07.275Z,82.40
2022-12-07T06:16:34.019Z,82.34
2022-12-07T06:19:00.795Z,82.29
2022-12-07T06:21:27.487Z,82.48
2022-12-07T06:23:54.373Z,82.38
2022-12-07T06:26:21.256Z,82.31
2022-12-07T06:28:47.950Z,82.21
2022-12-07T06:31:14.732Z,82.27
2022-12-07T06:33:41.805Z,82.09
2022-12-07T06:36:09.052Z,82.07
2022-12-07T06:38:36.302Z,82.19
2022-12-07T06:41:03.085Z,82.22
2022-12-07T06:43:30.466Z,81.99
2022-12-07T06:45:57.143Z,82.09
2022-12-07T06:48:23.916Z,82.07
2022-12-07T06:50:54.717Z,82.19
2022-12-07T06:53:22.967Z,82.21
2022-12-07T06:55:49.927Z,82.09
2022-12-07T06:58:17.599Z,81.96
2022-12-07T07:00:45.218Z,81.77
2022-12-07T07:03:12.235Z,81.74
2022-12-07T07:05:38.938Z,81.76
2022-12-07T07:08:21.803Z,81.68
2022-12-07T07:10:49.444Z,81.75
2022-12-07T07:13:16.190Z,81.76
2022-12-07T07:15:43.040Z,81.68
2022-12-07T07:18:09.880Z,81.67
2022-12-07T07:20:37.574Z,81.60
2022-12-07T07:23:04.706Z,81.82
2022-12-07T07:25:31.799Z,81.85
2022-12-07T07:27:58.419Z,81.80
2022-12-07T07:30:25.547Z,81.61
2022-12-07T07:32:52.341Z,81.61
2022-12-07T07:35:19.738Z,81.59
2022-12-07T07:37:46.619Z,81.51
2022-12-07T07:40:13.293Z,81.23
2022-12-07T07:42:39.965Z,81.07
2022-12-07T07:45:07.131Z,81.18
2022-12-07T07:47:33.818Z,81.19
2022-12-07T07:50:01.280Z,81.34
2022-12-07T07:52:28.243Z,81.39
2022-12-07T07:54:54.802Z,81.51
2022-12-07T07:57:21.488Z,81.36
2022-12-07T07:59:48.178Z,81.48
2022-12-07T08:02:19.987Z,81.21
2022-12-07T08:04:47.227Z,81.18
2022-12-07T08:07:15.000Z,81.05
2022-12-07T08:09:42.098Z,81.03
2022-12-07T08:12:08.992Z,81.08
2022-12-07T08:14:35.692Z,80.80
2022-12-07T08:17:02.889Z,80.81
2022-12-07T08:19:29.623Z,80.67
2022-12-07T08:21:56.956Z,80.52
2022-12-07T08:24:25.657Z,80.17
2022-12-07T08:26:52.806Z,80.04
2022-12-07T08:29:19.821Z,79.98
2022-12-07T08:31:46.760Z,79.98
2022-12-07T08:34:14.251Z,79.90
2022-12-07T08:36:41.709Z,79.67
2022-12-07T08:39:30.995Z,79.77
2022-12-07T08:41:55.153Z,79.49
2022-12-07T08:44:21.891Z,79.25
2022-12-07T08:46:54.520Z,79.24
2022-12-07T08:49:36.056Z,79.26
2022-12-07T08:52:05.568Z,79.41
2022-12-07T08:54:36.107Z,79.43
2022-12-07T08:57:03.852Z,79.65
2022-12-07T08:59:31.142Z,79.33
2022-12-07T09:01:57.915Z,79.34
2022-12-07T09:04:24.732Z,79.31
2022-12-07T09:06:51.644Z,79.04
2022-12-07T09:09:18.345Z,79.06
2022-12-07T09:11:45.655Z,79.05
2022-12-07T09:14:13.308Z,78.93
2022-12-07T09:16:40.793Z,79.02
2022-12-07T09:19:08.656Z,78.84
2022-12-07T09:21:35.381Z,79.02
2022-12-07T09:24:02.177Z,78.63
2022-12-07T09:26:28.918Z,78.60
2022-12-07T09:28:55.566Z,78.53
2022-12-07T09:31:24.412Z,78.90
2022-12-07T09:34:00.770Z,78.77
2022-12-07T09:36:29.699Z,78.54
2022-12-07T09:38:56.334Z,78.59
2022-12-07T09:41:25.775Z,78.38
2022-12-07T09:43:58.700Z,78.47
2022-12-07T09:46:25.327Z,78.43
2022-12-07T09:48:52.217Z,78.49
2022-12-07T09:51:24.201Z,78.46
2022-12-07T09:53:57.766Z,78.33
2022-12-07T09:56:25.400Z,78.47
2022-12-07T09:59:03.164Z,78.45
2022-12-07T10:01:32.921Z,78.42
2022-12-07T10:04:10.126Z,78.32
2022-12-07T10:06:36.767Z,78.29
2022-12-07T10:09:13.839Z,78.47
2022-12-07T10:12:02.254Z,78.33
2022-12-07T10:14:58.956Z,78.41
2022-12-07T10:17:32.407Z,78.33
2022-12-07T10:20:20.831Z,78.34
2022-12-07T10:23:01.460Z,78.52
2022-12-07T10:25:33.098Z,78.64
2022-12-07T10:28:17.386Z,78.56
2022-12-07T10:30:52.436Z,78.19
2022-12-07T10:33:50.238Z,77.83
2022-12-07T10:36:22.338Z,77.43
2022-12-07T10:38:53.105Z,77.33
2022-12-07T10:41:20.530Z,77.50
2022-12-07T10:43:49.628Z,77.06
2022-12-07T10:46:44.337Z,76.56
2022-12-07T10:49:32.359Z,76.35
2022-12-07T10:52:18.664Z,75.99
2022-12-07T10:55:16.526Z,75.53
2022-12-07T10:57:48.211Z,75.57
2022-12-07T11:00:25.791Z,75.57
2022-12-07T11:03:20.013Z,75.75
2022-12-07T11:06:07.240Z,75.97
2022-12-07T11:08:42.880Z,75.76
2022-12-07T11:11:28.664Z,75.90
2022-12-07T11:14:14.144Z,75.45
2022-12-07T11:17:23.895Z,75.41
2022-12-07T11:20:13.258Z,75.54
2022-12-07T11:22:56.084Z,75.66
2022-12-07T11:25:31.776Z,75.58
2022-12-07T11:28:35.979Z,75.64
2022-12-07T11:31:27.325Z,75.57
2022-12-07T11:34:08.611Z,75.22
2022-12-07T11:36:42.179Z,75.21
2022-12-07T11:39:21.393Z,74.81
2022-12-07T11:41:53.538Z,75.08
2022-12-07T11:45:01.619Z,74.76
2022-12-07T11:47:54.602Z,74.78
2022-12-07T11:50:48.070Z,75.04
2022-12-07T11:53:39.339Z,75.46
2022-12-07T11:56:11.894Z,75.45
2022-12-07T11:59:05.126Z,75.12
2022-12-07T12:01:33.801Z,75.12
2022-12-07T12:04:07.724Z,74.94
2022-12-07T12:06:35.886Z,74.53
2022-12-07T12:15:37.291Z,74.48
2022-12-07T12:18:20.518Z,74.43
2022-12-07T12:21:01.136Z,74.82
2022-12-07T12:23:42.418Z,74.39
2022-12-07T12:26:19.423Z,74.38
2022-12-07T12:29:36.033Z,74.26
2022-12-07T12:32:25.393Z,74.52
2022-12-07T12:35:33.499Z,74.61
2022-12-07T12:38:20.397Z,74.21
2022-12-07T12:40:50.994Z,73.91
2022-12-07T12:43:48.074Z,73.92
2022-12-07T12:46:50.374Z,73.90
2022-12-07T12:49:20.305Z,73.67
2022-12-07T12:51:50.722Z,73.63
2022-12-07T12:54:26.031Z,73.72
2022-12-07T12:57:07.923Z,73.45
2022-12-07T12:59:40.261Z,72.97
2022-12-07T13:02:22.727Z,72.31
2022-12-07T13:04:54.048Z,72.29
2022-12-07T13:07:54.659Z,71.69
2022-12-07T13:10:24.681Z,71.64
2022-12-07T13:13:15.752Z,71.80
2022-12-07T13:15:51.343Z,72.40
2022-12-07T13:18:30.309Z,72.44
2022-12-07T13:21:09.657Z,72.33
2022-12-07T13:23:38.408Z,72.38
2022-12-07T13:26:17.730Z,72.51
2022-12-07T13:28:46.689Z,72.89
2022-12-07T13:31:35.711Z,72.77
2022-12-07T13:34:26.304Z,72.64
2022-12-07T13:36:53.109Z,73.04
2022-12-07T13:39:25.911Z,73.60
2022-12-07T13:41:55.801Z,73.64
2022-12-07T13:44:23.913Z,73.70
2022-12-07T13:47:00.319Z,73.48
2022-12-07T13:49:32.456Z,73.59
2022-12-07T13:52:18.143Z,73.60
2022-12-07T13:54:50.593Z,73.71
2022-12-07T13:57:18.184Z,73.79
2022-12-07T13:59:46.007Z,73.73
2022-12-07T14:02:21.786Z,73.82
2022-12-07T14:04:51.214Z,73.75
2022-12-07T14:07:29.435Z,73.80
2022-12-07T14:09:59.027Z,73.74
2022-12-07T14:12:27.121Z,73.77
2022-12-07T14:14:55.470Z,73.93
2022-12-07T14:17:25.058Z,73.88
2022-12-07T14:19:59.008Z,74.05
2022-12-07T14:22:38.110Z,73.81
2022-12-07T14:25:13.562Z,74.09
2022-12-07T14:27:49.082Z,74.08
2022-12-07T14:30:18.482Z,73.94
2022-12-07T14:32:49.098Z,73.98
2022-12-07T14:35:17.999Z,73.94
2022-12-07T14:37:47.188Z,73.65
2022-12-07T14:40:16.812Z,73.73
2022-12-07T14:42:45.066Z,73.91
2022-12-07T14:45:16.011Z,73.75
2022-12-07T14:50:30.134Z,73.69
2022-12-07T14:55:48.428Z,73.76
2022-12-07T14:58:16.810Z,73.82
2022-12-07T15:00:44.427Z,73.92
2022-12-07T15:03:13.395Z,73.54
2022-12-07T15:05:41.386Z,73.51
2022-12-07T15:08:12.780Z,73.44
2022-12-07T15:10:40.487Z,73.30
2022-12-07T15:13:26.513Z,73.50
2022-12-07T15:15:54.279Z,73.83
2022-12-07T15:18:22.259Z,73.96
2022-12-07T15:20:48.951Z,73.93
2022-12-07T15:23:15.770Z,74.01
2022-12-07T15:25:43.723Z,73.98
2022-12-07T15:28:10.440Z,74.20
2022-12-07T15:30:38.357Z,74.11
2022-12-07T15:33:04.994Z,74.11
2022-12-07T15:35:31.668Z,74.20
2022-12-07T15:37:58.244Z,74.30
2022-12-07T15:40:24.862Z,74.12
2022-12-07T15:42:51.469Z,74.26
2022-12-07T15:45:18.517Z,74.36
2022-12-07T15:50:32.198Z,74.11
2022-12-07T15:52:58.862Z,74.11
2022-12-07T15:55:25.482Z,74.25
2022-12-07T15:57:52.223Z,74.27
2022-12-07T16:00:19.561Z,73.97
2022-12-07T16:02:46.458Z,73.73
2022-12-07T16:05:13.225Z,73.74
2022-12-07T16:07:39.873Z,73.88
2022-12-07T16:10:07.347Z,73.69
2022-12-07T16:12:34.003Z,73.76
2022-12-07T16:15:00.878Z,73.73
2022-12-07T16:17:27.830Z,73.39
2022-12-07T16:19:54.576Z,73.51
2022-12-07T16:22:21.422Z,73.66
2022-12-07T16:24:48.190Z,73.59
2022-12-07T16:27:15.144Z,73.42
2022-12-07T16:29:41.946Z,73.47
2022-12-07T16:32:08.610Z,73.73
2022-12-07T16:34:35.617Z,73.61
2022-12-07T16:37:04.329Z,73.34
2022-12-07T16:39:32.148Z,73.36
2022-12-07T16:41:58.833Z,73.44
2022-12-07T16:44:25.678Z,73.00
2022-12-07T16:46:52.393Z,73.08
2022-12-07T16:49:19.485Z,73.02
2022-12-07T16:52:03.123Z,72.93
2022-12-07T16:54:36.533Z,72.89
2022-12-07T16:57:03.336Z,72.81
2022-12-07T16:59:30.496Z,72.55
2022-12-07T17:01:57.085Z,72.68
2022-12-07T17:04:23.819Z,72.62
2022-12-07T17:06:50.596Z,72.69
2022-12-07T17:09:21.171Z,72.83
2022-12-07T17:11:48.726Z,72.83
2022-12-07T17:14:34.263Z,73.01
2022-12-07T17:17:01.310Z,73.51
2022-12-07T17:19:27.947Z,73.57
2022-12-07T17:21:54.581Z,73.84
2022-12-07T17:24:21.217Z,73.85
2022-12-07T17:26:48.073Z,73.62
2022-12-07T17:29:16.921Z,73.69
2022-12-07T17:31:49.513Z,73.91
2022-12-07T17:34:18.815Z,73.77
2022-12-07T17:36:45.564Z,73.80
2022-12-07T17:39:16.302Z,73.66
2022-12-07T17:42:01.786Z,73.78
2022-12-07T17:44:28.824Z,73.78
2022-12-07T17:46:59.319Z,73.48
2022-12-07T17:49:26.805Z,73.45
2022-12-07T17:52:12.609Z,73.67
2022-12-07T17:54:39.383Z,73.63
2022-12-07T17:57:06.179Z,73.69
2022-12-07T17:59:32.927Z,73.99
2022-12-07T18:01:59.658Z,73.77
2022-12-07T18:04:26.431Z,73.38
2022-12-07T18:06:53.076Z,73.06
2022-12-07T18:09:21.453Z,72.85
2022-12-07T18:11:48.017Z,72.67
2022-12-07T18:14:16.111Z,72.48
2022-12-07T18:16:43.181Z,72.47
2022-12-07T18:19:12.963Z,72.47
2022-12-07T18:21:40.735Z,72.19
2022-12-07T18:24:10.472Z,72.11
2022-12-07T18:26:37.797Z,72.17
2022-12-07T18:29:06.708Z,71.95
2022-12-07T18:31:34.989Z,72.17
2022-12-07T18:34:04.767Z,72.04
2022-12-07T18:36:31.611Z,72.12
2022-12-07T18:38:58.276Z,72.12
2022-12-07T18:41:24.920Z,72.09
2022-12-07T18:43:51.726Z,71.95
2022-12-07T18:46:20.743Z,71.66
2022-12-07T18:48:49.734Z,71.39
2022-12-07T18:51:17.626Z,71.29
2022-12-07T18:53:44.631Z,71.33
2022-12-07T18:56:14.352Z,71.11
2022-12-07T18:59:00.133Z,71.15
2022-12-07T19:01:27.443Z,71.26
2022-12-07T19:03:54.212Z,71.25
2022-12-07T19:06:20.819Z,71.17
2022-12-07T19:08:47.484Z,71.16
2022-12-07T19:11:41.196Z,71.29
2022-12-07T19:14:07.893Z,71.61
2022-12-07T19:16:34.874Z,71.75
2022-12-07T19:19:01.747Z,71.83
2022-12-07T19:21:28.562Z,72.24
2022-12-07T19:23:55.715Z,72.10
2022-12-07T19:26:22.818Z,72.03
2022-12-07T19:28:50.309Z,72.06
2022-12-07T19:31:17.182Z,72.18
2022-12-07T19:33:43.957Z,72.24
2022-12-07T19:36:10.818Z,72.16
2022-12-07T19:38:37.387Z,72.15
2022-12-07T19:41:32.506Z,72.20
2022-12-07T19:44:00.444Z,72.31
2022-12-07T19:46:27.616Z,72.24
2022-12-07T19:48:54.551Z,72.17
2022-12-07T19:51:21.754Z,71.97
2022-12-07T19:53:48.383Z,71.84
2022-12-07T19:56:17.172Z,71.91
2022-12-07T19:58:43.912Z,71.84
2022-12-07T20:01:11.433Z,71.94
2022-12-07T20:03:38.084Z,72.02
2022-12-07T20:06:13.555Z,72.00
2022-12-07T20:08:41.108Z,71.96
2022-12-07T20:11:26.521Z,72.18
2022-12-07T20:13:53.724Z,72.47
2022-12-07T20:16:21.295Z,72.38
2022-12-07T20:18:51.623Z,72.30
2022-12-07T20:21:21.224Z,72.35
2022-12-07T20:23:47.809Z,72.28
2022-12-07T20:26:14.602Z,72.51
2022-12-07T20:28:45.751Z,72.39
2022-12-07T20:31:14.694Z,72.66
2022-12-07T20:33:45.878Z,72.71
2022-12-07T20:36:15.380Z,72.71
2022-12-07T20:38:43.603Z,72.50
2022-12-07T20:41:31.185Z,72.26
2022-12-07T20:43:58.947Z,72.36
2022-12-07T20:46:26.304Z,72.63
2022-12-07T20:48:53.431Z,72.78
2022-12-07T20:51:20.288Z,72.95
2022-12-07T20:53:46.938Z,72.86
2022-12-07T20:56:27.089Z,72.85
2022-12-07T20:58:55.262Z,73.01
2022-12-07T21:01:22.221Z,73.04
2022-12-07T21:03:49.039Z,73.20
2022-12-07T21:06:17.508Z,73.25
2022-12-07T21:08:49.500Z,73.36
2022-12-07T21:11:18.006Z,73.09
2022-12-07T21:13:45.401Z,73.20
2022-12-07T21:16:24.381Z,73.18
2022-12-07T21:18:51.433Z,73.57
2022-12-07T21:21:19.348Z,73.48
2022-12-07T21:23:48.519Z,73.47
2022-12-07T21:26:18.977Z,73.58
2022-12-07T21:28:46.245Z,73.40
2022-12-07T21:31:14.110Z,73.40
2022-12-07T21:33:43.462Z,73.47
2022-12-07T21:36:12.596Z,73.17
2022-12-07T21:38:39.383Z,73.27
2022-12-07T21:41:12.731Z,73.02
2022-12-07T21:43:39.549Z,72.99
2022-12-07T21:46:06.710Z,73.04
2022-12-07T21:48:33.670Z,72.97
2022-12-07T21:51:13.818Z,72.93
2022-12-07T21:53:42.614Z,72.69
2022-12-07T21:56:23.984Z,72.43
2022-12-07T21:58:52.051Z,72.45
2022-12-07T22:01:26.930Z,72.16
2022-12-07T22:03:54.341Z,72.08
2022-12-07T22:06:23.957Z,72.19
2022-12-07T22:08:51.503Z,72.24
2022-12-07T22:11:18.860Z,72.19
2022-12-07T22:14:09.889Z,72.35
2022-12-07T22:16:37.725Z,72.60
2022-12-07T22:19:05.801Z,72.40
2022-12-07T22:21:33.463Z,72.66
2022-12-07T22:24:00.278Z,72.43
2022-12-07T22:26:27.246Z,72.33
2022-12-07T22:28:54.089Z,72.18
2022-12-07T22:31:21.834Z,72.04
2022-12-07T22:33:49.119Z,71.54
2022-12-07T22:36:16.044Z,71.25
2022-12-07T22:38:43.170Z,71.22
2022-12-07T22:41:17.874Z,71.45
2022-12-07T22:43:44.892Z,71.86
2022-12-07T22:46:11.556Z,71.95
2022-12-07T22:48:38.248Z,71.96
2022-12-07T22:51:04.986Z,71.88
2022-12-07T22:53:31.724Z,71.93
2022-12-07T22:55:58.455Z,72.17
2022-12-07T22:58:25.086Z,72.21
2022-12-07T23:00:54.498Z,72.27
2022-12-07T23:03:21.193Z,72.53
2022-12-07T23:05:49.066Z,72.41
2022-12-07T23:08:16.689Z,72.07
2022-12-07T23:10:48.013Z,72.27
2022-12-07T23:13:32.389Z,72.34
2022-12-07T23:16:01.158Z,72.18
2022-12-07T23:18:28.011Z,72.30
2022-12-07T23:20:57.843Z,72.38
2022-12-07T23:23:25.124Z,72.50
2022-12-07T23:25:52.298Z,72.44
2022-12-07T23:28:19.394Z,72.39
2022-12-07T23:30:46.287Z,72.45
2022-12-07T23:33:13.132Z,72.31
2022-12-07T23:35:39.753Z,72.34
2022-12-07T23:38:06.374Z,72.58
2022-12-07T23:40:33.047Z,72.49
2022-12-07T23:42:59.679Z,72.49
2022-12-07T23:45:26.374Z,72.44
2022-12-07T23:47:53.054Z,72.57
2022-12-07T23:50:19.794Z,72.55
2022-12-07T23:52:46.442Z,72.77
2022-12-07T23:55:13.170Z,72.72
2022-12-07T23:57:39.814Z,72.54
